Eastern Sierra Regional Airport
KBIH : now visible

Airfield :











YOU CAN JOIN US ON...

 
LOGIN :

Register | Disclaimer

   EN    FR    IT 

 









Legend :    VFR   Marginal VFR   IFR   Intensive IFR   Very Intensive IFR
Visi :
Ceiling :
>= 8 km
>= 3000ft
5 to 8 km
1000 to 3000 ft
1500m to 5 km
500 to 1000 ft
800 to 1500m
200 to 500 ft
< 800m
< 200 ft
Symbols :   Thunderstorms  Fog  Heavy snow  Heavy precipitations  Wind > 20 kt






- Airport Elevation : 4124 ft


KBIH - Eastern Sierra Regional

CURRENT METAR :
  • 190256Z AUTO 15010KT 10SM CLR 24/M08 A2979 RMK AO2 SLP045 T02441078 53000

EXPIRED METARs :
  • 190156Z AUTO 16006KT 10SM CLR 27/M09 A2978 RMK AO2 SLP043 T02671089
  • 190056Z AUTO 16010KT 10SM CLR 28/M10 A2978 RMK AO2 SLP048 T02831100
  • 182356Z AUTO 16011G18KT 10SM CLR 28/M11 A2979 RMK AO2 SLP046 T02831111 10289 20211 56018
  • 182256Z AUTO 16011G15KT 10SM CLR 27/M12 A2981 RMK AO2 SLP053 T02721122

TAF KBIH
Valid from the 19 at 00:00 until the 20 at 00:00 UTC


182320Z 1900/1924 17008KT P6SM FEW200
FM190300 02010KT P6SM SCT200
FM190600 33008KT P6SM SCT200
KZOA FIR / North America



MET'MAP, your aeronautical weather chart ! - Copyright ORBIFLY December 2007 - Disclaimer

ORBIFLY MET'MAP TEAM :

Programming & Development : Alexandra Zaïnal
Original concept : Baudouin d'Aumeries
Technical & hardware support : Manuel Goepfert
Assistance : Marc-Olivier Méhu




SOURCES & CREDITS :

   NOAA       Earth
Advisory